createdAt,value
2023-01-12T00:00:18.503Z,98524.97
2023-01-12T00:02:24.419Z,98516.97
2023-01-12T00:04:31.091Z,98511.88
2023-01-12T00:06:38.506Z,98510.16
2023-01-12T00:08:43.830Z,98516.97
2023-01-12T00:10:48.354Z,98515.44
2023-01-12T00:12:53.253Z,98522.34
2023-01-12T00:14:58.045Z,98518.06
2023-01-12T00:17:00.451Z,98528.28
2023-01-12T00:19:05.731Z,98520.31
2023-01-12T00:21:10.676Z,98515.97
2023-01-12T00:23:19.719Z,98517.53
2023-01-12T00:25:24.516Z,98521.91
2023-01-12T00:27:29.253Z,98521.16
2023-01-12T00:29:34.659Z,98524.22
2023-01-12T00:31:39.628Z,98531.88
2023-01-12T00:33:44.502Z,98536.94
2023-01-12T00:35:49.414Z,98533.22
2023-01-12T00:37:54.245Z,98533.97
2023-01-12T00:40:03.078Z,98528.78
2023-01-12T00:42:21.146Z,98536.41
2023-01-12T00:44:38.483Z,98530.16
2023-01-12T00:46:43.281Z,98533.47
2023-01-12T00:48:48.077Z,98520.50
2023-01-12T00:50:53.235Z,98527.25
2023-01-12T00:52:57.821Z,98525.59
2023-01-12T00:55:05.218Z,98523.75
2023-01-12T00:57:10.623Z,98522.06
2023-01-12T00:59:15.339Z,98524.59
2023-01-12T01:01:20.436Z,98523.13
2023-01-12T01:03:25.526Z,98524.06
2023-01-12T01:05:30.249Z,98517.84
2023-01-12T01:07:35.045Z,98517.94
2023-01-12T01:09:39.783Z,98514.41
2023-01-12T01:11:47.276Z,98513.38
2023-01-12T01:13:52.021Z,98513.41
2023-01-12T01:15:56.860Z,98504.06
2023-01-12T01:18:01.693Z,98509.34
2023-01-12T01:20:07.883Z,98516.16
2023-01-12T01:22:13.146Z,98510.16
2023-01-12T01:24:17.858Z,98516.25
2023-01-12T01:26:25.835Z,98517.09
2023-01-12T01:28:33.281Z,98524.84
2023-01-12T01:30:38.051Z,98519.47
2023-01-12T01:32:42.910Z,98515.06
2023-01-12T01:34:48.292Z,98515.00
2023-01-12T01:36:53.109Z,98520.03
2023-01-12T01:38:57.967Z,98517.41
2023-01-12T01:41:02.863Z,98508.81
2023-01-12T01:43:07.652Z,98516.66
2023-01-12T01:45:17.267Z,98524.50
2023-01-12T01:47:30.120Z,98523.66
2023-01-12T01:49:37.881Z,98517.44
2023-01-12T01:51:42.973Z,98516.00
2023-01-12T01:53:49.656Z,98526.44
2023-01-12T01:55:59.101Z,98517.00
2023-01-12T01:58:06.090Z,98516.91
2023-01-12T02:00:13.422Z,98516.06
2023-01-12T02:02:21.445Z,98519.50
2023-01-12T02:04:28.234Z,98510.81
2023-01-12T02:06:33.157Z,98508.16
2023-01-12T02:08:47.119Z,98504.56
2023-01-12T02:10:55.273Z,98508.97
2023-01-12T02:13:12.584Z,98508.16
2023-01-12T02:15:30.210Z,98516.06
2023-01-12T02:17:50.418Z,98503.34
2023-01-12T02:20:28.093Z,98494.66
2023-01-12T02:22:49.227Z,98492.97
2023-01-12T02:25:20.730Z,98490.69
2023-01-12T02:27:37.247Z,98487.53
2023-01-12T02:30:04.121Z,98492.19
2023-01-12T02:32:18.168Z,98483.81
2023-01-12T02:34:35.382Z,98490.91
2023-01-12T02:36:47.860Z,98483.38
2023-01-12T02:38:58.428Z,98486.09
2023-01-12T02:41:12.769Z,98487.13
2023-01-12T02:43:18.339Z,98487.34
2023-01-12T02:45:30.474Z,98487.34
2023-01-12T02:47:46.429Z,98489.13
2023-01-12T02:49:55.468Z,98490.06
2023-01-12T02:52:04.149Z,98486.66
2023-01-12T02:54:12.794Z,98483.25
2023-01-12T02:56:22.493Z,98481.59
2023-01-12T02:58:30.081Z,98475.66
2023-01-12T03:00:38.976Z,98474.91
2023-01-12T03:02:46.443Z,98472.41
2023-01-12T03:04:51.629Z,98465.72
2023-01-12T03:07:33.247Z,98471.81
2023-01-12T03:09:44.007Z,98468.56
2023-01-12T03:11:50.903Z,98467.00
2023-01-12T03:14:03.071Z,98472.34
2023-01-12T03:16:10.443Z,98474.28
2023-01-12T03:18:21.975Z,98468.34
2023-01-12T03:20:29.617Z,98463.31
2023-01-12T03:22:37.469Z,98464.25
2023-01-12T03:24:46.821Z,98462.59
2023-01-12T03:26:54.608Z,98468.63
2023-01-12T03:29:05.134Z,98462.56
2023-01-12T03:31:12.247Z,98465.16
2023-01-12T03:33:19.781Z,98451.31
2023-01-12T03:35:29.938Z,98449.56
2023-01-12T03:37:37.978Z,98457.31
2023-01-12T03:39:54.240Z,98455.63
2023-01-12T03:42:05.575Z,98455.63
2023-01-12T03:44:20.512Z,98455.69
2023-01-12T03:46:30.373Z,98456.53
2023-01-12T03:48:41.202Z,98447.94
2023-01-12T03:50:50.427Z,98451.38
2023-01-12T03:52:57.835Z,98451.38
2023-01-12T03:55:04.544Z,98441.09
2023-01-12T03:57:12.320Z,98440.22
2023-01-12T03:59:17.452Z,98432.50
2023-01-12T04:01:23.022Z,98428.16
2023-01-12T04:03:29.011Z,98428.06
2023-01-12T04:05:36.506Z,98426.31
2023-01-12T04:07:41.367Z,98425.41
2023-01-12T04:09:46.174Z,98424.56
2023-01-12T04:12:03.463Z,98416.91
2023-01-12T04:14:08.205Z,98418.72
2023-01-12T04:16:13.100Z,98423.91
2023-01-12T04:18:18.203Z,98431.69
2023-01-12T04:20:23.493Z,98429.81
2023-01-12T04:22:43.363Z,98432.22
2023-01-12T04:24:48.761Z,98427.75
2023-01-12T04:26:53.522Z,98425.00
2023-01-12T04:28:58.412Z,98418.81
2023-01-12T04:31:03.172Z,98421.38
2023-01-12T04:33:11.611Z,98422.13
2023-01-12T04:35:16.678Z,98411.75
2023-01-12T04:37:22.150Z,98412.69
2023-01-12T04:39:29.501Z,98405.84
2023-01-12T04:41:34.387Z,98410.22
2023-01-12T04:43:36.998Z,98412.00
2023-01-12T04:45:43.943Z,98405.09
2023-01-12T04:47:48.942Z,98402.50
2023-01-12T04:49:53.755Z,98404.94
2023-01-12T04:51:58.563Z,98397.06
2023-01-12T04:54:03.457Z,98392.66
2023-01-12T04:56:12.123Z,98393.50
2023-01-12T04:58:16.885Z,98389.16
2023-01-12T05:00:22.939Z,98374.59
2023-01-12T05:02:27.786Z,98383.13
2023-01-12T05:04:32.856Z,98379.69
2023-01-12T05:06:37.911Z,98382.19
2023-01-12T05:08:55.266Z,98381.28
2023-01-12T05:11:01.907Z,98377.75
2023-01-12T05:13:09.360Z,98386.41
2023-01-12T05:15:14.577Z,98381.31
2023-01-12T05:17:19.403Z,98387.47
2023-01-12T05:19:24.225Z,98384.06
2023-01-12T05:21:29.051Z,98380.50
2023-01-12T05:23:33.847Z,98377.78
2023-01-12T05:25:38.798Z,98376.84
2023-01-12T05:27:43.656Z,98376.09
2023-01-12T05:29:52.831Z,98371.72
2023-01-12T05:31:57.861Z,98363.22
2023-01-12T05:34:02.690Z,98370.91
2023-01-12T05:36:08.869Z,98369.13
2023-01-12T05:38:14.261Z,98367.28
2023-01-12T05:40:19.122Z,98356.13
2023-01-12T05:42:36.370Z,98347.47
2023-01-12T05:44:41.269Z,98352.59
2023-01-12T05:46:48.637Z,98352.50
2023-01-12T05:48:55.037Z,98359.44
2023-01-12T05:51:03.336Z,98361.09
2023-01-12T05:53:08.149Z,98369.63
2023-01-12T05:55:13.397Z,98360.88
2023-01-12T05:57:18.219Z,98355.66
2023-01-12T05:59:23.014Z,98367.78
2023-01-12T06:01:28.471Z,98356.72
2023-01-12T06:03:36.095Z,98349.72
2023-01-12T06:05:40.944Z,98355.69
2023-01-12T06:07:45.795Z,98358.22
2023-01-12T06:09:50.704Z,98354.81
2023-01-12T06:12:07.897Z,98359.13
2023-01-12T06:14:13.674Z,98361.66
2023-01-12T06:16:18.909Z,98356.41
2023-01-12T06:18:23.573Z,98359.91
2023-01-12T06:20:30.950Z,98356.47
2023-01-12T06:22:35.803Z,98350.66
2023-01-12T06:24:40.626Z,98353.34
2023-01-12T06:26:46.446Z,98347.56
2023-01-12T06:28:51.291Z,98348.44
2023-01-12T06:30:59.833Z,98344.97
2023-01-12T06:33:05.541Z,98355.28
2023-01-12T06:35:19.013Z,98344.88
2023-01-12T06:37:27.125Z,98343.97
2023-01-12T06:39:34.706Z,98337.81
2023-01-12T06:41:51.977Z,98335.19
2023-01-12T06:43:56.817Z,98335.13
2023-01-12T06:46:02.277Z,98323.03
2023-01-12T06:48:08.006Z,98327.19
2023-01-12T06:50:14.501Z,98320.31
2023-01-12T06:52:19.280Z,98321.88
2023-01-12T06:54:27.271Z,98325.28
2023-01-12T06:56:32.059Z,98329.53
2023-01-12T06:58:36.850Z,98318.34
2023-01-12T07:00:41.689Z,98319.19
2023-01-12T07:02:46.466Z,98313.97
2023-01-12T07:04:51.296Z,98313.25
2023-01-12T07:06:57.356Z,98309.81
2023-01-12T07:09:02.904Z,98307.16
2023-01-12T07:11:12.746Z,98314.16
2023-01-12T07:13:17.620Z,98316.59
2023-01-12T07:15:22.487Z,98315.66
2023-01-12T07:17:27.482Z,98317.44
2023-01-12T07:19:32.374Z,98315.88
2023-01-12T07:21:37.181Z,98322.78
2023-01-12T07:23:43.592Z,98314.94
2023-01-12T07:25:48.570Z,98317.44
2023-01-12T07:27:57.922Z,98321.84
2023-01-12T07:30:02.722Z,98310.63
2023-01-12T07:32:08.088Z,98308.81
2023-01-12T07:34:12.678Z,98307.16
2023-01-12T07:36:17.470Z,98305.50
2023-01-12T07:38:22.345Z,98311.41
2023-01-12T07:40:27.196Z,98313.81
2023-01-12T07:42:29.449Z,98312.13
2023-01-12T07:44:37.680Z,98304.25
2023-01-12T07:46:42.518Z,98305.84
2023-01-12T07:48:49.230Z,98303.97
2023-01-12T07:50:54.687Z,98292.75
2023-01-12T07:53:04.010Z,98296.84
2023-01-12T07:55:09.396Z,98292.16
2023-01-12T07:57:14.585Z,98286.72
2023-01-12T07:59:19.374Z,98278.84
2023-01-12T08:01:27.113Z,98277.75
2023-01-12T08:03:32.157Z,98275.00
2023-01-12T08:05:37.832Z,98264.59
2023-01-12T08:07:42.863Z,98272.38
2023-01-12T08:09:47.672Z,98270.38
2023-01-12T08:11:52.553Z,98278.75
2023-01-12T08:13:57.996Z,98261.47
2023-01-12T08:16:09.736Z,98272.75
2023-01-12T08:18:24.225Z,98271.72
2023-01-12T08:20:33.263Z,98266.38
2023-01-12T08:22:42.678Z,98274.06
2023-01-12T08:24:51.062Z,98265.25
2023-01-12T08:27:00.144Z,98265.22
2023-01-12T08:29:12.845Z,98268.75
2023-01-12T08:31:21.221Z,98279.75
2023-01-12T08:33:29.166Z,98270.81
2023-01-12T08:35:37.533Z,98263.81
2023-01-12T08:37:42.416Z,98260.31
2023-01-12T08:39:48.927Z,98262.06
2023-01-12T08:41:53.797Z,98268.25
2023-01-12T08:44:09.915Z,98270.75
2023-01-12T08:46:14.842Z,98257.50
2023-01-12T08:48:20.148Z,98246.19
2023-01-12T08:50:27.529Z,98244.41
2023-01-12T08:52:33.078Z,98246.97
2023-01-12T08:54:39.338Z,98239.91
2023-01-12T08:56:44.315Z,98240.97
2023-01-12T08:58:49.663Z,98232.34
2023-01-12T09:00:54.931Z,98223.63
2023-01-12T09:02:59.705Z,98233.34
2023-01-12T09:05:04.553Z,98244.22
2023-01-12T09:07:13.118Z,98254.50
2023-01-12T09:09:20.203Z,98245.47
2023-01-12T09:11:25.320Z,98243.78
2023-01-12T09:13:30.142Z,98244.53
2023-01-12T09:15:34.935Z,98236.41
2023-01-12T09:17:39.818Z,98235.56
2023-01-12T09:19:49.929Z,98234.59
2023-01-12T09:21:54.818Z,98235.97
2023-01-12T09:24:02.215Z,98225.06
2023-01-12T09:26:09.658Z,98229.03
2023-01-12T09:28:14.429Z,98234.75
2023-01-12T09:30:19.649Z,98234.03
2023-01-12T09:32:29.139Z,98233.88
2023-01-12T09:34:40.959Z,98231.16
2023-01-12T09:36:46.164Z,98230.25
2023-01-12T09:38:51.266Z,98226.56
2023-01-12T09:41:01.296Z,98226.44
2023-01-12T09:43:19.527Z,98230.66
2023-01-12T09:45:38.377Z,98220.03
2023-01-12T09:47:53.997Z,98224.91
2023-01-12T09:50:09.105Z,98231.03
2023-01-12T09:52:20.084Z,98229.50
2023-01-12T09:54:25.008Z,98232.94
2023-01-12T09:56:37.756Z,98226.53
2023-01-12T09:59:04.149Z,98224.63
2023-01-12T10:01:20.486Z,98232.47
2023-01-12T10:03:38.607Z,98223.78
2023-01-12T10:05:48.953Z,98220.84
2023-01-12T10:07:57.391Z,98207.84
2023-01-12T10:10:02.275Z,98212.34
2023-01-12T10:12:18.258Z,98211.94
2023-01-12T10:14:58.790Z,98215.06
2023-01-12T10:17:17.606Z,98208.00
2023-01-12T10:19:28.519Z,98205.41
2023-01-12T10:21:34.790Z,98207.28
2023-01-12T10:23:39.745Z,98209.63
2023-01-12T10:25:48.750Z,98210.63
2023-01-12T10:27:58.902Z,98211.31
2023-01-12T10:30:05.119Z,98207.03
2023-01-12T10:32:14.819Z,98198.31
2023-01-12T10:34:19.658Z,98209.81
2023-01-12T10:36:25.560Z,98208.91
2023-01-12T10:38:33.994Z,98210.47
2023-01-12T10:40:38.840Z,98206.19
2023-01-12T10:43:19.519Z,98207.19
2023-01-12T10:45:30.349Z,98208.16
2023-01-12T10:47:36.467Z,98207.44
2023-01-12T10:49:41.269Z,98203.22
2023-01-12T10:51:53.482Z,98198.97
2023-01-12T10:54:03.153Z,98205.06
2023-01-12T10:56:23.745Z,98211.00
2023-01-12T10:58:35.314Z,98206.72
2023-01-12T11:00:40.232Z,98203.16
2023-01-12T11:02:47.050Z,98211.84
2023-01-12T11:04:54.077Z,98194.38
2023-01-12T11:07:05.223Z,98198.47
2023-01-12T11:09:21.615Z,98190.53
2023-01-12T11:11:31.186Z,98194.56
2023-01-12T11:13:40.029Z,98198.22
2023-01-12T11:16:01.721Z,98186.19
2023-01-12T11:18:28.210Z,98173.91
2023-01-12T11:20:38.209Z,98179.81
2023-01-12T11:22:45.976Z,98171.25
2023-01-12T11:24:57.374Z,98171.63
2023-01-12T11:27:05.581Z,98176.41
2023-01-12T11:29:28.835Z,98170.50
2023-01-12T11:31:39.144Z,98170.53
2023-01-12T11:33:47.868Z,98154.47
2023-01-12T11:36:01.811Z,98161.22
2023-01-12T11:38:13.789Z,98160.50
2023-01-12T11:40:28.988Z,98152.16
2023-01-12T11:42:47.792Z,98146.66
2023-01-12T11:45:01.683Z,98156.13
2023-01-12T11:47:09.305Z,98149.13
2023-01-12T11:49:20.622Z,98146.31
2023-01-12T11:51:25.470Z,98145.22
2023-01-12T11:53:30.705Z,98144.06
2023-01-12T11:55:47.928Z,98137.00
2023-01-12T11:58:04.095Z,98133.53
2023-01-12T12:00:25.813Z,98135.34
2023-01-12T12:02:38.215Z,98143.59
2023-01-12T12:04:56.265Z,98133.53
2023-01-12T12:07:13.204Z,98134.09
2023-01-12T12:09:27.567Z,98121.16
2023-01-12T12:11:41.918Z,98122.00
2023-01-12T12:13:57.488Z,98112.19
2023-01-12T12:16:17.052Z,98112.88
2023-01-12T12:18:34.580Z,98118.78
2023-01-12T12:20:46.151Z,98111.50
2023-01-12T12:23:03.639Z,98115.78
2023-01-12T12:25:33.624Z,98108.34
2023-01-12T12:27:58.889Z,98104.38
2023-01-12T12:30:33.021Z,98108.06
2023-01-12T12:32:48.607Z,98111.78
2023-01-12T12:35:09.417Z,98103.13
2023-01-12T12:37:25.243Z,98096.88
2023-01-12T12:39:45.074Z,98090.59
2023-01-12T12:42:14.303Z,98101.69
2023-01-12T12:44:45.921Z,98088.06
2023-01-12T12:47:02.272Z,98094.31
2023-01-12T12:49:15.905Z,98092.44
2023-01-12T12:51:22.856Z,98097.03
2023-01-12T12:53:30.471Z,98095.03
2023-01-12T12:55:35.650Z,98097.41
2023-01-12T12:58:01.955Z,98093.78
2023-01-12T13:00:08.174Z,98090.81
2023-01-12T13:02:41.136Z,98091.88
2023-01-12T13:05:05.333Z,98089.34
2023-01-12T13:07:10.869Z,98083.84
2023-01-12T13:09:39.207Z,98084.09
2023-01-12T13:11:54.168Z,98087.09
2023-01-12T13:14:04.136Z,98089.81
2023-01-12T13:16:47.535Z,98083.72
2023-01-12T13:19:08.334Z,98078.47
2023-01-12T13:21:35.031Z,98081.13
2023-01-12T13:23:57.492Z,98082.88
2023-01-12T13:26:02.300Z,98074.50
2023-01-12T13:28:20.809Z,98087.53
2023-01-12T13:30:52.464Z,98086.31
2023-01-12T13:33:02.477Z,98075.63
2023-01-12T13:35:25.114Z,98076.69
2023-01-12T13:37:41.659Z,98078.19
2023-01-12T13:39:55.202Z,98074.75
2023-01-12T13:42:12.603Z,98081.84
2023-01-12T13:44:24.522Z,98079.09
2023-01-12T13:46:32.346Z,98070.09
2023-01-12T13:48:39.087Z,98074.88
2023-01-12T13:50:50.605Z,98077.13
2023-01-12T13:53:06.308Z,98073.38
2023-01-12T13:55:22.145Z,98071.00
2023-01-12T13:57:29.379Z,98070.09
2023-01-12T13:59:35.315Z,98066.22
2023-01-12T14:01:42.304Z,98063.81
2023-01-12T14:04:13.165Z,98071.44
2023-01-12T14:06:29.192Z,98068.69
2023-01-12T14:08:51.840Z,98068.59
2023-01-12T14:11:10.710Z,98066.00
2023-01-12T14:13:32.365Z,98067.81
2023-01-12T14:15:53.340Z,98066.22
2023-01-12T14:18:03.423Z,98057.00
2023-01-12T14:20:17.140Z,98064.75
2023-01-12T14:22:23.557Z,98060.81
2023-01-12T14:24:31.003Z,98052.72
2023-01-12T14:26:38.334Z,98049.19
2023-01-12T14:28:45.565Z,98053.00
2023-01-12T14:30:54.709Z,98054.63
2023-01-12T14:32:59.601Z,98054.03
2023-01-12T14:35:04.515Z,98049.66
2023-01-12T14:37:28.206Z,98051.28
2023-01-12T14:39:41.411Z,98044.25
2023-01-12T14:42:02.693Z,98053.88
2023-01-12T14:44:21.197Z,98065.63
2023-01-12T14:46:30.057Z,98056.00
2023-01-12T14:48:40.580Z,98058.53
2023-01-12T14:51:01.784Z,98063.72
2023-01-12T14:53:34.748Z,98056.25
2023-01-12T14:55:43.023Z,98068.38
2023-01-12T14:57:53.093Z,98068.28
2023-01-12T14:59:58.985Z,98058.81
2023-01-12T15:02:26.956Z,98055.09
2023-01-12T15:04:31.861Z,98053.31
2023-01-12T15:06:41.904Z,98057.13
2023-01-12T15:08:56.659Z,98058.84
2023-01-12T15:11:10.419Z,98057.88
2023-01-12T15:13:27.181Z,98059.06
2023-01-12T15:15:54.886Z,98072.75
2023-01-12T15:18:12.194Z,98077.16
2023-01-12T15:20:44.375Z,98082.22
2023-01-12T15:23:01.812Z,98071.16
2023-01-12T15:25:27.333Z,98062.63
2023-01-12T15:27:35.269Z,98074.69
2023-01-12T15:29:40.149Z,98080.69
2023-01-12T15:31:45.057Z,98073.34
2023-01-12T15:33:49.986Z,98072.38
2023-01-12T15:35:54.854Z,98077.31
2023-01-12T15:38:01.303Z,98084.28
2023-01-12T15:40:06.283Z,98082.66
2023-01-12T15:42:22.147Z,98086.03
2023-01-12T15:44:29.629Z,98081.91
2023-01-12T15:46:34.478Z,98085.13
2023-01-12T15:48:39.411Z,98075.91
2023-01-12T15:50:45.917Z,98079.63
2023-01-12T15:52:51.574Z,98080.41
2023-01-12T15:54:56.450Z,98081.91
2023-01-12T15:57:01.831Z,98080.53
2023-01-12T15:59:07.122Z,98078.56
2023-01-12T16:01:17.843Z,98084.41
2023-01-12T16:03:54.543Z,98083.38
2023-01-12T16:05:49.391Z,98087.28
2023-01-12T16:07:54.561Z,98092.50
2023-01-12T16:09:59.548Z,98099.50
2023-01-12T16:12:04.328Z,98102.72
2023-01-12T16:14:09.256Z,98105.09
2023-01-12T16:16:18.820Z,98094.28
2023-01-12T16:18:23.666Z,98089.28
2023-01-12T16:20:28.599Z,98099.09
2023-01-12T16:22:33.541Z,98099.84
2023-01-12T16:24:38.841Z,98084.69
2023-01-12T16:26:43.847Z,98090.41
2023-01-12T16:28:48.731Z,98088.44
2023-01-12T16:30:55.175Z,98086.56
2023-01-12T16:33:03.330Z,98084.69
2023-01-12T16:35:08.573Z,98086.59
2023-01-12T16:37:14.991Z,98092.91
2023-01-12T16:39:19.815Z,98092.91
2023-01-12T16:41:24.677Z,98086.75
2023-01-12T16:43:32.317Z,98091.44
2023-01-12T16:45:37.181Z,98090.47
2023-01-12T16:47:41.979Z,98099.84
2023-01-12T16:49:51.212Z,98091.88
2023-01-12T16:51:56.906Z,98088.22
2023-01-12T16:54:02.996Z,98074.22
2023-01-12T16:56:08.562Z,98075.56
2023-01-12T16:58:13.459Z,98076.81
2023-01-12T17:00:19.260Z,98078.78
2023-01-12T17:02:24.682Z,98063.88
2023-01-12T17:04:30.483Z,98057.47
2023-01-12T17:06:39.833Z,98062.75
2023-01-12T17:08:45.332Z,98067.13
2023-01-12T17:10:50.832Z,98048.75
2023-01-12T17:12:57.442Z,98066.97
2023-01-12T17:15:04.117Z,98062.31
2023-01-12T17:17:11.854Z,98055.13
2023-01-12T17:19:17.025Z,98070.56
2023-01-12T17:21:23.074Z,98071.09
2023-01-12T17:23:31.223Z,98070.88
2023-01-12T17:25:36.247Z,98053.72
2023-01-12T17:27:41.152Z,98057.25
2023-01-12T17:29:46.165Z,98055.28
2023-01-12T17:31:51.722Z,98065.91
2023-01-12T17:33:56.681Z,98066.28
2023-01-12T17:36:04.730Z,98060.28
2023-01-12T17:38:09.621Z,98065.41
2023-01-12T17:40:17.360Z,98060.66
2023-01-12T17:42:34.643Z,98051.28
2023-01-12T17:44:39.460Z,98060.00
2023-01-12T17:46:45.124Z,98052.00
2023-01-12T17:48:50.308Z,98053.84
2023-01-12T17:50:55.215Z,98049.78
2023-01-12T17:53:00.570Z,98055.88
2023-01-12T17:55:05.539Z,98049.56
2023-01-12T17:57:15.017Z,98049.78
2023-01-12T17:59:22.939Z,98050.88
2023-01-12T18:01:30.072Z,98053.84
2023-01-12T18:03:34.934Z,98050.16
2023-01-12T18:05:42.417Z,98038.91
2023-01-12T18:07:47.549Z,98047.56
2023-01-12T18:09:52.409Z,98040.69
2023-01-12T18:11:57.321Z,98031.09
2023-01-12T18:14:05.499Z,98038.72
2023-01-12T18:16:10.860Z,98033.66
2023-01-12T18:18:15.801Z,98030.03
2023-01-12T18:20:20.848Z,98040.44
2023-01-12T18:22:25.708Z,98035.38
2023-01-12T18:24:30.515Z,98029.06
2023-01-12T18:26:37.044Z,98027.25
2023-01-12T18:28:42.104Z,98024.63
2023-01-12T18:30:49.521Z,98025.75
2023-01-12T18:32:54.411Z,98012.69
2023-01-12T18:35:00.352Z,98010.00
2023-01-12T18:37:05.199Z,98011.63
2023-01-12T18:39:14.485Z,98011.75
2023-01-12T18:41:32.835Z,98012.56
2023-01-12T18:43:38.736Z,98008.53
2023-01-12T18:45:51.623Z,98013.53
2023-01-12T18:48:08.922Z,97995.59
2023-01-12T18:50:26.394Z,98009.66
2023-01-12T18:52:43.650Z,98010.50
2023-01-12T18:54:53.314Z,98017.31
2023-01-12T18:56:58.115Z,98007.28
2023-01-12T18:59:04.416Z,98009.88
2023-01-12T19:01:14.374Z,98000.16
2023-01-12T19:03:19.598Z,98002.63
2023-01-12T19:05:33.152Z,98005.91
2023-01-12T19:07:52.059Z,98009.31
2023-01-12T19:09:54.407Z,98008.53
2023-01-12T19:11:59.236Z,98008.75
2023-01-12T19:14:16.623Z,97992.34
2023-01-12T19:16:36.920Z,97996.44
2023-01-12T19:18:41.817Z,97995.50
2023-01-12T19:20:46.632Z,97989.47
2023-01-12T19:23:03.898Z,97986.03
2023-01-12T19:25:22.090Z,97994.75
2023-01-12T19:27:39.402Z,97984.59
2023-01-12T19:29:44.964Z,97984.84
2023-01-12T19:31:52.591Z,97980.19
2023-01-12T19:33:57.381Z,97986.31
2023-01-12T19:36:08.406Z,97987.44
2023-01-12T19:38:14.976Z,97986.72
2023-01-12T19:40:26.505Z,97984.00
2023-01-12T19:42:44.868Z,97992.69
2023-01-12T19:44:49.755Z,97986.16
2023-01-12T19:46:57.331Z,97997.16
2023-01-12T19:49:02.252Z,97988.13
2023-01-12T19:51:11.028Z,97993.41
2023-01-12T19:53:18.635Z,97984.53
2023-01-12T19:55:23.413Z,97981.75
2023-01-12T19:57:28.301Z,97981.81
2023-01-12T19:59:33.106Z,97983.41
2023-01-12T20:01:38.074Z,97980.19
2023-01-12T20:03:46.158Z,97975.97
2023-01-12T20:05:52.566Z,97980.28
2023-01-12T20:07:57.875Z,97973.63
2023-01-12T20:10:02.784Z,97981.31
2023-01-12T20:12:08.641Z,97978.66
2023-01-12T20:14:13.496Z,97977.66
2023-01-12T20:16:18.490Z,97972.47
2023-01-12T20:18:23.449Z,97977.56
2023-01-12T20:20:31.537Z,97971.53
2023-01-12T20:22:36.414Z,97968.09
2023-01-12T20:24:41.309Z,97974.41
2023-01-12T20:26:46.296Z,97970.84
2023-01-12T20:28:51.112Z,97962.09
2023-01-12T20:30:57.507Z,97964.28
2023-01-12T20:33:04.476Z,97962.38
2023-01-12T20:35:09.220Z,97962.09
2023-01-12T20:37:16.675Z,97959.59
2023-01-12T20:39:21.471Z,97953.66
2023-01-12T20:41:26.856Z,97949.03
2023-01-12T20:43:31.385Z,97957.00
2023-01-12T20:45:36.209Z,97954.38
2023-01-12T20:47:41.065Z,97948.06
2023-01-12T20:49:46.185Z,97950.22
2023-01-12T20:51:51.041Z,97942.41
2023-01-12T20:54:00.063Z,97943.75
2023-01-12T20:56:06.171Z,97932.69
2023-01-12T20:58:12.034Z,97948.13
2023-01-12T21:00:17.261Z,97938.41
2023-01-12T21:02:23.569Z,97939.47
2023-01-12T21:04:28.383Z,97931.56
2023-01-12T21:06:33.251Z,97923.56
2023-01-12T21:08:38.196Z,97919.97
2023-01-12T21:10:50.840Z,97911.19
2023-01-12T21:12:55.866Z,97906.88
2023-01-12T21:15:00.667Z,97917.97
2023-01-12T21:17:06.313Z,97915.56
2023-01-12T21:19:11.382Z,97912.66
2023-01-12T21:21:16.769Z,97913.31
2023-01-12T21:23:21.579Z,97913.66
2023-01-12T21:25:28.909Z,97903.31
2023-01-12T21:27:36.519Z,97906.06
2023-01-12T21:29:41.570Z,97913.75
2023-01-12T21:31:46.817Z,97915.56
2023-01-12T21:33:51.395Z,97911.94
2023-01-12T21:35:59.656Z,97915.16
2023-01-12T21:38:04.482Z,97903.88
2023-01-12T21:40:10.618Z,97895.81
2023-01-12T21:42:27.913Z,97902.97
2023-01-12T21:44:35.610Z,97907.19
2023-01-12T21:46:42.647Z,97916.00
2023-01-12T21:48:47.800Z,97913.41
2023-01-12T21:50:52.831Z,97901.16
2023-01-12T21:52:57.637Z,97903.63
2023-01-12T21:55:02.524Z,97901.03
2023-01-12T21:57:07.756Z,97914.88
2023-01-12T21:59:13.190Z,97906.22
2023-01-12T22:01:20.645Z,97910.41
2023-01-12T22:03:27.111Z,97906.97
2023-01-12T22:05:32.547Z,97903.09
2023-01-12T22:07:37.339Z,97904.03
2023-01-12T22:09:42.294Z,97906.47
2023-01-12T22:11:47.277Z,97901.13
2023-01-12T22:13:52.163Z,97907.66
2023-01-12T22:15:56.973Z,97902.38
2023-01-12T22:18:04.638Z,97894.50
2023-01-12T22:20:11.115Z,97903.97
2023-01-12T22:22:15.919Z,97906.56
2023-01-12T22:24:20.719Z,97902.16
2023-01-12T22:26:28.386Z,97895.28
2023-01-12T22:28:34.587Z,97903.78
2023-01-12T22:30:39.393Z,97901.16
2023-01-12T22:32:44.734Z,97899.69
2023-01-12T22:34:52.103Z,97901.22
2023-01-12T22:36:56.975Z,97899.63
2023-01-12T22:39:01.898Z,97894.09
2023-01-12T22:41:08.105Z,97891.34
2023-01-12T22:43:26.035Z,97891.97
2023-01-12T22:45:31.105Z,97882.16
2023-01-12T22:47:47.574Z,97874.06
2023-01-12T22:49:55.704Z,97877.44
2023-01-12T22:52:00.477Z,97880.56
2023-01-12T22:54:05.351Z,97876.75
2023-01-12T22:56:10.886Z,97867.16
2023-01-12T22:58:15.713Z,97869.00
2023-01-12T23:00:22.298Z,97869.63
2023-01-12T23:02:42.035Z,97868.84
2023-01-12T23:04:46.797Z,97875.75
2023-01-12T23:06:54.110Z,97876.44
2023-01-12T23:08:58.806Z,97872.31
2023-01-12T23:11:08.501Z,97866.97
2023-01-12T23:13:19.001Z,97870.47
2023-01-12T23:15:23.769Z,97867.84
2023-01-12T23:17:28.776Z,97860.81
2023-01-12T23:19:33.418Z,97856.59
2023-01-12T23:21:39.828Z,97865.41
2023-01-12T23:23:49.136Z,97861.03
2023-01-12T23:25:53.957Z,97854.00
2023-01-12T23:27:58.695Z,97855.56
2023-01-12T23:30:03.521Z,97857.28
2023-01-12T23:32:08.590Z,97848.44
2023-01-12T23:34:14.018Z,97843.38
2023-01-12T23:36:20.838Z,97835.56
2023-01-12T23:38:25.790Z,97824.38
2023-01-12T23:40:33.263Z,97821.63
2023-01-12T23:42:37.969Z,97829.44
2023-01-12T23:44:42.726Z,97832.03
2023-01-12T23:46:47.509Z,97838.00
2023-01-12T23:48:53.058Z,97829.44
2023-01-12T23:51:00.512Z,97828.50
2023-01-12T23:53:05.273Z,97827.50
2023-01-12T23:55:10.810Z,97827.59
2023-01-12T23:57:18.257Z,97824.06
2023-01-12T23:59:23.437Z,97825.00
